createdAt,value
2022-08-04T00:01:45.328Z,21.00
2022-08-04T00:04:24.186Z,16.75
2022-08-04T00:07:06.048Z,22.25
2022-08-04T00:09:39.760Z,20.60
2022-08-04T00:12:07.809Z,22.80
2022-08-04T00:14:38.065Z,18.20
2022-08-04T00:17:06.605Z,19.00
2022-08-04T00:19:41.212Z,21.75
2022-08-04T00:22:10.052Z,21.00
2022-08-04T00:24:37.227Z,20.25
2022-08-04T00:27:04.092Z,24.50
2022-08-04T00:29:31.187Z,18.75
2022-08-04T00:31:58.151Z,19.75
2022-08-04T00:34:29.176Z,20.00
2022-08-04T00:36:56.465Z,21.00
2022-08-04T00:39:23.526Z,17.00
2022-08-04T00:42:02.235Z,19.00
2022-08-04T00:44:53.576Z,21.20
2022-08-04T00:47:32.887Z,20.00
2022-08-04T00:50:11.699Z,22.20
2022-08-04T00:52:44.544Z,22.40
2022-08-04T00:55:27.695Z,19.00
2022-08-04T00:57:54.311Z,26.25
2022-08-04T01:00:21.158Z,19.00
2022-08-04T01:02:50.548Z,18.60
2022-08-04T01:05:26.260Z,19.00
2022-08-04T01:08:19.841Z,32.75
2022-08-04T01:10:52.572Z,33.80
2022-08-04T01:13:19.161Z,19.75
2022-08-04T01:16:00.045Z,24.00
2022-08-04T01:18:45.605Z,22.20
2022-08-04T01:21:12.179Z,18.50
2022-08-04T01:23:54.095Z,20.20
2022-08-04T01:26:43.712Z,20.80
2022-08-04T01:29:24.511Z,23.60
2022-08-04T01:32:09.912Z,19.00
2022-08-04T01:34:42.575Z,30.25
2022-08-04T01:37:12.477Z,28.40
2022-08-04T01:39:44.920Z,17.00
2022-08-04T01:42:12.662Z,28.00
2022-08-04T01:44:50.039Z,34.00
2022-08-04T01:47:18.155Z,21.20
2022-08-04T01:49:47.280Z,35.25
2022-08-04T01:52:16.391Z,19.60
2022-08-04T01:54:43.268Z,18.80
2022-08-04T01:57:38.428Z,18.00
2022-08-04T01:59:59.236Z,34.50
2022-08-04T02:02:25.930Z,19.00
2022-08-04T02:04:52.613Z,18.50
2022-08-04T02:07:37.346Z,25.00
2022-08-04T02:10:03.899Z,21.80
2022-08-04T02:12:52.710Z,18.00
2022-08-04T02:15:28.409Z,18.50
2022-08-04T02:18:01.458Z,18.40
2022-08-04T02:20:38.516Z,18.00
2022-08-04T02:23:07.753Z,18.00
2022-08-04T02:25:40.206Z,17.60
2022-08-04T02:28:06.765Z,19.50
2022-08-04T02:30:59.638Z,19.75
2022-08-04T02:33:40.214Z,21.25
2022-08-04T02:36:09.640Z,33.40
2022-08-04T02:38:42.419Z,23.60
2022-08-04T02:41:10.047Z,19.40
2022-08-04T02:43:51.435Z,19.00
2022-08-04T02:46:20.013Z,19.60
2022-08-04T02:48:47.937Z,19.20
2022-08-04T02:51:16.074Z,18.20
2022-08-04T02:53:43.840Z,18.80
2022-08-04T02:56:11.935Z,31.20
2022-08-04T02:58:41.759Z,20.60
2022-08-04T03:01:08.494Z,22.00
2022-08-04T03:03:48.791Z,19.33
2022-08-04T03:06:34.225Z,20.80
2022-08-04T03:09:22.980Z,19.80
2022-08-04T03:11:56.900Z,18.00
2022-08-04T03:14:29.677Z,29.20
2022-08-04T03:17:14.826Z,18.00
2022-08-04T03:20:00.150Z,22.20
2022-08-04T03:22:53.744Z,19.00
2022-08-04T03:25:56.549Z,18.00
2022-08-04T03:28:42.966Z,17.20
2022-08-04T03:31:28.338Z,18.60
2022-08-04T03:34:14.435Z,23.00
2022-08-04T03:36:56.368Z,18.00
2022-08-04T03:39:44.701Z,19.25
2022-08-04T03:42:26.439Z,31.00
2022-08-04T03:45:04.263Z,19.60
2022-08-04T03:48:09.274Z,18.60
2022-08-04T03:50:41.430Z,34.00
2022-08-04T03:53:20.405Z,19.40
2022-08-04T03:56:05.314Z,19.00
2022-08-04T03:58:43.386Z,30.25
2022-08-04T04:01:28.845Z,26.00
2022-08-04T04:04:24.567Z,31.75
2022-08-04T04:07:11.162Z,19.60
2022-08-04T04:10:01.163Z,24.60
2022-08-04T04:12:49.153Z,22.50
2022-08-04T04:15:28.157Z,20.00
2022-08-04T04:17:54.761Z,20.50
2022-08-04T04:20:27.442Z,17.40
2022-08-04T04:22:57.051Z,18.00
2022-08-04T04:25:37.323Z,21.20
2022-08-04T04:28:44.599Z,16.40
2022-08-04T04:30:53.347Z,17.80
2022-08-04T04:33:30.391Z,31.00
2022-08-04T04:35:57.215Z,20.00
2022-08-04T04:38:26.597Z,20.20
2022-08-04T04:41:04.425Z,18.50
2022-08-04T04:43:50.905Z,18.00
2022-08-04T04:46:32.913Z,16.75
2022-08-04T04:49:22.803Z,21.00
2022-08-04T04:51:52.484Z,20.80
2022-08-04T04:54:37.166Z,18.00
2022-08-04T04:57:09.890Z,17.60
2022-08-04T04:59:38.461Z,21.25
2022-08-04T05:02:14.220Z,17.00
2022-08-04T05:04:52.889Z,14.75
2022-08-04T05:07:37.827Z,16.50
2022-08-04T05:10:04.409Z,18.00
2022-08-04T05:14:31.306Z,22.40
2022-08-04T05:15:29.160Z,19.00
2022-08-04T05:17:57.586Z,17.60
2022-08-04T05:20:27.341Z,33.40
2022-08-04T05:22:53.939Z,17.60
2022-08-04T05:25:25.617Z,19.50
2022-08-04T05:27:57.700Z,25.80
2022-08-04T05:30:26.289Z,30.80
2022-08-04T05:33:07.722Z,25.00
2022-08-04T05:35:37.709Z,23.50
2022-08-04T05:38:23.556Z,20.60
2022-08-04T05:40:51.044Z,23.40
2022-08-04T05:43:18.317Z,23.40
2022-08-04T05:45:48.392Z,28.75
2022-08-04T05:48:16.863Z,29.00
2022-08-04T05:50:44.644Z,42.40
2022-08-04T05:53:11.653Z,29.80
2022-08-04T05:55:56.985Z,25.00
2022-08-04T05:58:25.503Z,38.00
2022-08-04T06:00:53.629Z,22.60
2022-08-04T06:03:22.610Z,42.50
2022-08-04T06:05:50.089Z,22.50
2022-08-04T06:08:16.846Z,40.75
2022-08-04T06:10:44.901Z,27.20
2022-08-04T06:13:47.979Z,41.60
2022-08-04T06:15:59.777Z,30.00
2022-08-04T06:19:58.942Z,31.00
2022-08-04T06:21:17.435Z,45.80
2022-08-04T06:23:53.634Z,26.00
2022-08-04T06:26:29.206Z,28.50
2022-08-04T06:28:56.974Z,38.25
2022-08-04T06:32:27.407Z,44.00
2022-08-04T06:34:30.141Z,30.50
2022-08-04T06:36:58.616Z,24.60
2022-08-04T06:39:26.270Z,40.60
2022-08-04T06:42:20.096Z,31.00
2022-08-04T06:44:41.100Z,31.50
2022-08-04T06:47:07.975Z,31.00
2022-08-04T06:49:54.975Z,32.60
2022-08-04T06:52:22.616Z,30.75
2022-08-04T06:54:50.607Z,39.60
2022-08-04T06:57:18.787Z,24.00
2022-08-04T06:59:46.779Z,31.75
2022-08-04T07:02:18.902Z,37.00
2022-08-04T07:04:46.740Z,42.00
2022-08-04T07:07:13.988Z,29.00
2022-08-04T07:09:41.187Z,26.00
2022-08-04T07:12:17.621Z,28.00
2022-08-04T07:14:44.346Z,29.00
2022-08-04T07:17:11.314Z,27.40
2022-08-04T07:19:38.027Z,25.00
2022-08-04T07:22:24.851Z,30.75
2022-08-04T07:24:56.649Z,38.25
2022-08-04T07:27:47.616Z,26.00
2022-08-04T07:30:11.119Z,28.00
2022-08-04T07:32:38.367Z,40.20
2022-08-04T07:35:06.125Z,28.00
2022-08-04T07:37:40.033Z,32.25
2022-08-04T07:40:07.556Z,26.20
2022-08-04T07:42:34.939Z,26.60
2022-08-04T07:45:01.596Z,27.00
2022-08-04T07:47:28.464Z,27.33
2022-08-04T07:49:57.902Z,42.00
2022-08-04T07:52:25.876Z,27.50
2022-08-04T07:54:53.523Z,30.00
2022-08-04T07:57:40.786Z,32.20
2022-08-04T08:00:08.679Z,47.50
2022-08-04T08:02:35.856Z,38.20
2022-08-04T08:05:02.657Z,36.00
2022-08-04T08:07:29.339Z,34.75
2022-08-04T08:09:56.070Z,35.40
2022-08-04T08:12:37.746Z,43.80
2022-08-04T08:15:10.529Z,26.40
2022-08-04T08:17:58.476Z,39.80
2022-08-04T08:20:28.979Z,26.00
2022-08-04T08:22:56.694Z,30.50
2022-08-04T08:25:23.433Z,31.00
2022-08-04T08:27:56.052Z,26.00
2022-08-04T08:30:24.035Z,38.75
2022-08-04T08:32:51.230Z,25.00
2022-08-04T08:35:18.206Z,27.00
2022-08-04T08:37:53.167Z,32.75
2022-08-04T08:40:37.842Z,26.00
2022-08-04T08:44:00.367Z,39.50
2022-08-04T08:46:15.737Z,42.00
2022-08-04T08:48:45.720Z,29.75
2022-08-04T08:51:12.301Z,29.50
2022-08-04T08:53:59.282Z,30.50
2022-08-04T08:56:31.044Z,45.00
2022-08-04T08:59:15.084Z,38.25
2022-08-04T09:01:51.262Z,34.40
2022-08-04T09:04:25.837Z,32.00
2022-08-04T09:07:03.513Z,27.80
2022-08-04T09:09:30.774Z,31.50
2022-08-04T09:11:57.382Z,34.80
2022-08-04T09:14:40.039Z,44.80
2022-08-04T09:17:13.871Z,37.80
2022-08-04T09:19:43.207Z,36.00
2022-08-04T09:22:13.783Z,36.40
2022-08-04T09:24:52.648Z,30.20
2022-08-04T09:27:20.918Z,28.60
2022-08-04T09:29:47.951Z,27.25
2022-08-04T09:32:33.025Z,28.60
2022-08-04T09:35:09.759Z,15.00
2022-08-04T09:37:48.346Z,13.00
2022-08-04T09:40:31.774Z,16.00
2022-08-04T09:43:07.706Z,18.00
2022-08-04T09:45:44.252Z,21.00
2022-08-04T09:48:23.860Z,24.60
2022-08-04T09:50:53.761Z,36.40
2022-08-04T09:53:39.182Z,22.00
2022-08-04T09:56:10.396Z,24.60
2022-08-04T09:58:37.504Z,24.75
2022-08-04T10:01:09.920Z,19.50
2022-08-04T10:03:38.445Z,29.20
2022-08-04T10:06:11.304Z,36.50
2022-08-04T10:08:52.995Z,28.50
2022-08-04T10:11:24.438Z,34.20
2022-08-04T10:13:51.008Z,26.80
2022-08-04T10:16:41.504Z,30.50
2022-08-04T10:19:20.948Z,28.20
2022-08-04T10:21:59.643Z,38.50
2022-08-04T10:24:53.107Z,26.50
2022-08-04T10:27:43.040Z,31.00
2022-08-04T10:30:13.720Z,35.50
2022-08-04T10:32:59.047Z,29.00
2022-08-04T10:35:26.988Z,37.50
2022-08-04T10:38:01.717Z,46.00
2022-08-04T10:40:37.923Z,31.40
2022-08-04T10:43:21.013Z,32.20
2022-08-04T10:46:09.683Z,32.60
2022-08-04T10:48:56.491Z,24.00
2022-08-04T10:51:57.618Z,23.00
2022-08-04T10:54:31.909Z,20.80
2022-08-04T10:57:01.539Z,22.25
2022-08-04T10:59:48.397Z,18.00
2022-08-04T11:02:25.968Z,22.20
2022-08-04T11:04:59.580Z,20.00
2022-08-04T11:07:30.479Z,26.50
2022-08-04T11:09:57.633Z,18.00
2022-08-04T11:12:25.717Z,19.00
2022-08-04T11:15:07.749Z,18.00
2022-08-04T11:17:50.564Z,15.75
2022-08-04T11:20:38.620Z,15.67
2022-08-04T11:23:13.106Z,11.20
2022-08-04T11:25:52.462Z,11.00
2022-08-04T11:28:33.344Z,14.00
2022-08-04T11:31:08.206Z,8.20
2022-08-04T11:33:52.928Z,8.75
2022-08-04T11:36:32.400Z,12.25
2022-08-04T11:39:17.146Z,11.00
2022-08-04T11:41:49.973Z,9.00
2022-08-04T11:44:19.869Z,10.75
2022-08-04T11:46:50.269Z,11.00
2022-08-04T11:49:24.453Z,9.50
2022-08-04T11:51:52.003Z,9.00
2022-08-04T11:54:19.327Z,8.80
2022-08-04T11:56:46.577Z,7.00
2022-08-04T11:59:13.304Z,7.50
2022-08-04T12:02:03.057Z,6.00
2022-08-04T12:04:48.628Z,6.25
2022-08-04T12:07:40.533Z,8.40
2022-08-04T12:10:06.974Z,6.60
2022-08-04T12:12:46.424Z,7.20
2022-08-04T12:15:19.132Z,8.80
2022-08-04T12:18:04.696Z,9.00
2022-08-04T12:20:41.154Z,6.25
2022-08-04T12:23:40.892Z,7.00
2022-08-04T12:26:29.816Z,6.50
2022-08-04T12:29:10.033Z,6.20
2022-08-04T12:31:49.644Z,7.60
2022-08-04T12:34:34.729Z,7.00
2022-08-04T12:37:01.361Z,7.80
2022-08-04T12:39:28.336Z,7.00
2022-08-04T12:42:08.106Z,6.00
2022-08-04T12:44:37.533Z,8.00
2022-08-04T12:47:26.774Z,7.00
2022-08-04T12:50:00.150Z,4.25
2022-08-04T12:52:51.658Z,4.80
2022-08-04T12:55:17.180Z,6.00
2022-08-04T12:57:44.316Z,3.25
2022-08-04T13:00:11.487Z,6.00
2022-08-04T13:02:41.604Z,3.75
2022-08-04T13:05:09.505Z,5.00
2022-08-04T13:07:47.878Z,5.40
2022-08-04T13:10:20.268Z,5.00
2022-08-04T13:13:00.430Z,6.50
2022-08-04T13:15:28.402Z,3.00
2022-08-04T13:18:06.473Z,3.00
2022-08-04T13:20:43.131Z,7.00
2022-08-04T13:23:11.790Z,6.80
2022-08-04T13:26:44.110Z,8.80
2022-08-04T13:28:31.829Z,9.00
2022-08-04T13:31:02.623Z,7.75
2022-08-04T13:33:34.155Z,8.00
2022-08-04T13:36:01.507Z,7.25
2022-08-04T13:38:29.803Z,8.50
2022-08-04T13:41:06.604Z,7.00
2022-08-04T13:44:15.586Z,4.60
2022-08-04T13:46:37.167Z,4.40
2022-08-04T13:49:28.387Z,5.00
2022-08-04T13:51:57.435Z,6.00
2022-08-04T13:54:26.399Z,4.60
2022-08-04T13:56:59.393Z,2.80
2022-08-04T13:59:27.527Z,4.00
2022-08-04T14:02:05.055Z,5.60
2022-08-04T14:04:34.771Z,4.00
2022-08-04T14:07:04.542Z,5.00
2022-08-04T14:09:35.118Z,5.00
2022-08-04T14:12:38.175Z,4.40
2022-08-04T14:14:56.088Z,6.00
2022-08-04T14:17:30.540Z,7.20
2022-08-04T14:20:02.023Z,7.00
2022-08-04T14:22:31.722Z,8.00
2022-08-04T14:25:15.495Z,7.00
2022-08-04T14:27:51.253Z,4.00
2022-08-04T14:30:21.652Z,6.00
2022-08-04T14:34:00.632Z,6.00
2022-08-04T14:36:06.445Z,6.00
2022-08-04T14:38:42.898Z,7.60
2022-08-04T14:41:09.829Z,6.75
2022-08-04T14:43:47.349Z,8.00
2022-08-04T14:46:14.352Z,8.60
2022-08-04T14:48:59.849Z,8.00
2022-08-04T14:51:36.486Z,7.00
2022-08-04T14:54:08.134Z,6.80
2022-08-04T14:56:46.906Z,6.00
2022-08-04T14:59:13.987Z,7.60
2022-08-04T15:01:42.193Z,8.00
2022-08-04T15:04:10.274Z,7.40
2022-08-04T15:06:36.977Z,7.00
2022-08-04T15:09:07.456Z,8.00
2022-08-04T15:11:34.848Z,7.60
2022-08-04T15:14:06.022Z,13.00
2022-08-04T15:16:33.455Z,12.00
2022-08-04T15:19:00.882Z,9.20
2022-08-04T15:21:29.086Z,11.00
2022-08-04T15:23:57.003Z,10.00
2022-08-04T15:26:35.684Z,9.20
2022-08-04T15:29:06.861Z,8.00
2022-08-04T15:32:05.474Z,7.00
2022-08-04T15:34:25.778Z,7.40
2022-08-04T15:36:56.726Z,9.50
2022-08-04T15:39:42.915Z,9.00
2022-08-04T15:42:21.945Z,8.20
2022-08-04T15:44:51.667Z,9.00
2022-08-04T15:47:18.467Z,11.50
2022-08-04T15:49:45.654Z,8.00
2022-08-04T15:52:13.780Z,8.00
2022-08-04T15:54:42.434Z,11.80
2022-08-04T15:57:38.740Z,13.00
2022-08-04T16:00:09.969Z,11.00
2022-08-04T16:02:43.994Z,8.00
2022-08-04T16:05:18.207Z,12.00
2022-08-04T16:07:54.711Z,9.20
2022-08-04T16:10:30.487Z,10.25
2022-08-04T16:12:58.576Z,8.00
2022-08-04T16:15:44.244Z,10.00
2022-08-04T16:18:25.494Z,11.80
2022-08-04T16:21:12.055Z,9.00
2022-08-04T16:23:59.198Z,8.00
2022-08-04T16:26:36.690Z,11.00
2022-08-04T16:29:24.445Z,9.00
2022-08-04T16:32:07.164Z,10.00
2022-08-04T16:34:49.423Z,8.00
2022-08-04T16:37:18.176Z,9.00
2022-08-04T16:39:51.212Z,10.00
2022-08-04T16:42:27.942Z,8.00
2022-08-04T16:45:21.012Z,9.00
2022-08-04T16:47:47.607Z,9.00
2022-08-04T16:50:14.817Z,7.25
2022-08-04T16:52:45.513Z,8.00
2022-08-04T16:55:12.609Z,9.00
2022-08-04T16:57:39.208Z,8.00
2022-08-04T17:00:07.512Z,9.00
2022-08-04T17:02:34.530Z,7.80
2022-08-04T17:05:07.657Z,10.00
2022-08-04T17:08:19.563Z,9.00
2022-08-04T17:10:45.912Z,8.00
2022-08-04T17:14:01.933Z,10.00
2022-08-04T17:16:13.826Z,13.00
2022-08-04T17:18:49.393Z,8.75
2022-08-04T17:21:19.658Z,10.00
2022-08-04T17:24:16.258Z,7.50
2022-08-04T17:26:41.419Z,8.00
2022-08-04T17:29:09.295Z,8.00
2022-08-04T17:31:37.546Z,13.60
2022-08-04T17:34:15.700Z,11.00
2022-08-04T17:36:43.744Z,9.20
2022-08-04T17:39:16.312Z,12.20
2022-08-04T17:41:49.082Z,10.00
2022-08-04T17:44:16.563Z,8.80
2022-08-04T17:46:48.173Z,12.00
2022-08-04T17:49:18.007Z,10.00
2022-08-04T17:52:04.986Z,9.75
2022-08-04T17:54:38.917Z,11.40
2022-08-04T17:57:20.414Z,10.60
2022-08-04T17:59:59.346Z,9.00
2022-08-04T18:02:33.192Z,6.50
2022-08-04T18:08:37.794Z,10.00
2022-08-04T18:10:56.176Z,8.75
2022-08-04T18:13:27.347Z,10.00
2022-08-04T18:16:03.648Z,9.60
2022-08-04T18:18:30.355Z,9.00
2022-08-04T18:20:59.663Z,10.60
2022-08-04T18:23:32.063Z,7.00
2022-08-04T18:25:59.346Z,9.00
2022-08-04T18:28:33.079Z,7.40
2022-08-04T18:31:00.568Z,10.00
2022-08-04T18:33:39.598Z,8.75
2022-08-04T18:36:37.041Z,11.00
2022-08-04T18:38:58.270Z,11.75
2022-08-04T18:44:13.730Z,12.00
2022-08-04T18:46:41.256Z,11.50
2022-08-04T18:50:59.273Z,9.60
2022-08-04T18:52:11.540Z,9.80
2022-08-04T18:54:42.131Z,11.20
2022-08-04T18:57:58.680Z,11.25
2022-08-04T18:59:56.027Z,9.00
2022-08-04T19:02:23.004Z,10.60
2022-08-04T19:04:53.329Z,9.25
2022-08-04T19:08:01.458Z,9.00
2022-08-04T19:10:07.015Z,10.60
2022-08-04T19:12:50.633Z,9.00
2022-08-04T19:15:19.493Z,12.00
2022-08-04T19:17:53.186Z,8.60
2022-08-04T19:20:25.957Z,9.00
2022-08-04T19:24:26.230Z,12.67
2022-08-04T19:25:58.896Z,12.00
2022-08-04T19:28:28.041Z,9.60
2022-08-04T19:30:57.594Z,10.00
2022-08-04T19:33:25.120Z,14.50
2022-08-04T19:35:52.243Z,10.00
2022-08-04T19:38:20.744Z,11.00
2022-08-04T19:40:50.658Z,7.00
2022-08-04T19:46:07.788Z,10.00
2022-08-04T19:48:38.679Z,10.60
2022-08-04T19:51:05.506Z,9.00
2022-08-04T19:53:37.475Z,9.00
2022-08-04T19:56:05.024Z,13.25
2022-08-04T19:58:31.660Z,12.00
2022-08-04T20:00:58.271Z,9.50
2022-08-04T20:04:10.292Z,12.00
2022-08-04T20:06:11.896Z,15.00
2022-08-04T20:08:38.522Z,11.40
2022-08-04T20:11:16.058Z,13.25
2022-08-04T20:13:43.888Z,12.00
2022-08-04T20:16:29.876Z,12.00
2022-08-04T20:19:02.809Z,13.00
2022-08-04T20:21:55.728Z,9.00
2022-08-04T20:24:38.266Z,12.00
2022-08-04T20:27:04.883Z,11.40
2022-08-04T20:29:40.224Z,12.00
2022-08-04T20:32:09.821Z,11.50
2022-08-04T20:34:36.766Z,13.00
2022-08-04T20:37:03.386Z,11.00
2022-08-04T20:39:30.984Z,15.00
2022-08-04T20:41:57.732Z,11.00
2022-08-04T20:44:24.480Z,9.75
2022-08-04T20:46:51.201Z,13.00
2022-08-04T20:49:17.938Z,11.25
2022-08-04T20:51:44.602Z,12.25
2022-08-04T20:54:16.288Z,15.00
2022-08-04T20:56:50.516Z,14.50
2022-08-04T20:59:18.280Z,12.00
2022-08-04T21:01:49.609Z,12.00
2022-08-04T21:04:32.607Z,11.50
2022-08-04T21:07:00.318Z,12.50
2022-08-04T21:09:38.352Z,11.25
2022-08-04T21:12:10.602Z,16.40
2022-08-04T21:14:53.778Z,11.00
2022-08-04T21:17:20.993Z,13.00
2022-08-04T21:20:07.590Z,11.60
2022-08-04T21:22:39.422Z,13.80
2022-08-04T21:25:06.264Z,10.40
2022-08-04T21:27:39.406Z,10.75
2022-08-04T21:30:09.693Z,11.20
2022-08-04T21:32:51.003Z,11.75
2022-08-04T21:35:18.814Z,10.25
2022-08-04T21:37:56.393Z,12.60
2022-08-04T21:40:32.715Z,15.40
2022-08-04T21:43:03.302Z,13.60
2022-08-04T21:45:36.056Z,13.00
2022-08-04T21:48:03.398Z,12.40
2022-08-04T21:50:31.090Z,11.50
2022-08-04T21:52:57.742Z,12.00
2022-08-04T21:55:25.757Z,13.00
2022-08-04T21:58:13.179Z,13.00
2022-08-04T22:00:40.192Z,14.60
2022-08-04T22:03:11.342Z,13.00
2022-08-04T22:05:53.491Z,13.50
2022-08-04T22:08:20.190Z,11.80
2022-08-04T22:10:50.257Z,11.00
2022-08-04T22:13:22.592Z,11.75
2022-08-04T22:16:05.405Z,11.50
2022-08-04T22:18:32.378Z,11.20
2022-08-04T22:21:03.972Z,24.50
2022-08-04T22:23:45.137Z,12.00
2022-08-04T22:26:20.154Z,13.50
2022-08-04T22:28:53.956Z,22.80
2022-08-04T22:31:23.996Z,12.00
2022-08-04T22:33:56.072Z,11.80
2022-08-04T22:36:24.833Z,13.00
2022-08-04T22:39:01.573Z,15.25
2022-08-04T22:41:48.102Z,17.00
2022-08-04T22:44:20.772Z,15.00
2022-08-04T22:46:48.102Z,12.50
2022-08-04T22:49:15.849Z,13.00
2022-08-04T22:51:50.682Z,13.75
2022-08-04T22:54:17.639Z,16.00
2022-08-04T22:56:45.718Z,12.00
2022-08-04T22:59:12.781Z,15.00
2022-08-04T23:02:01.267Z,14.00
2022-08-04T23:04:32.503Z,16.25
2022-08-04T23:06:59.739Z,14.00
2022-08-04T23:09:49.363Z,15.00
2022-08-04T23:12:28.635Z,12.00
2022-08-04T23:14:55.884Z,11.40
2022-08-04T23:17:22.970Z,14.00
2022-08-04T23:19:58.148Z,16.40
2022-08-04T23:22:42.075Z,15.00
2022-08-04T23:25:15.221Z,24.20
2022-08-04T23:27:43.986Z,15.00
2022-08-04T23:30:19.683Z,14.40
2022-08-04T23:32:48.275Z,14.50
2022-08-04T23:35:15.227Z,18.00
2022-08-04T23:37:56.260Z,14.75
2022-08-04T23:40:33.218Z,15.80
2022-08-04T23:43:02.275Z,12.60
2022-08-04T23:46:07.321Z,14.25
2022-08-04T23:48:31.151Z,15.60
2022-08-04T23:51:10.331Z,21.80
2022-08-04T23:53:41.716Z,17.80
2022-08-04T23:56:28.214Z,13.60
2022-08-04T23:58:56.055Z,14.75
